Time;durP1;ratioP1;P1;durP2;ratioP2;P2;SDS_P1;SDS_P2;PMS_P1;PMS_P2;Temp;Humidity;BMP_temperature;BMP_pressure;BME280_temperature;BME280_humidity;BME280_pressure;Samples;Min_cycle;Max_cycle;Signal;HPM_P1;HPM_P2
2023/01/16 00:00:18;;;;;;;3.50;1.83;;;3.80;99.90;;;;;;5013052;28;20478;-65
2023/01/16 00:02:45;;;;;;;6.20;1.70;;;3.80;99.90;;;;;;5017673;28;20499;-66
2023/01/16 00:05:12;;;;;;;3.40;1.93;;;3.70;99.90;;;;;;5016185;28;20512;-65
2023/01/16 00:07:40;;;;;;;5.20;2.00;;;3.70;99.90;;;;;;5012736;28;20477;-66
2023/01/16 00:10:07;;;;;;;1.80;1.70;;;3.70;99.90;;;;;;5012681;28;20450;-66
2023/01/16 00:12:34;;;;;;;1.60;1.30;;;3.70;99.90;;;;;;5016947;28;20450;-67
2023/01/16 00:15:00;;;;;;;2.13;1.50;;;3.80;99.90;;;;;;5016099;28;20454;-67
2023/01/16 00:17:27;;;;;;;3.73;1.40;;;3.80;99.90;;;;;;5012580;28;20564;-66
2023/01/16 00:19:54;;;;;;;1.80;1.50;;;3.80;99.90;;;;;;5012377;28;20521;-67
2023/01/16 00:22:20;;;;;;;2.90;1.30;;;3.80;99.90;;;;;;5012688;28;20454;-67
2023/01/16 00:24:48;;;;;;;3.97;1.50;;;3.70;99.90;;;;;;5012549;28;20866;-66
2023/01/16 00:27:15;;;;;;;2.37;1.90;;;3.70;99.90;;;;;;5012145;28;20443;-66
2023/01/16 00:29:41;;;;;;;4.37;2.10;;;3.70;99.90;;;;;;5024315;28;20505;-66
2023/01/16 00:32:10;;;;;;;3.50;1.83;;;3.70;99.90;;;;;;5015194;28;21035;-66
2023/01/16 00:34:36;;;;;;;4.20;1.63;;;3.70;99.90;;;;;;5012402;28;20820;-66
2023/01/16 00:37:03;;;;;;;1.97;1.60;;;3.70;99.90;;;;;;5012232;28;20494;-66
2023/01/16 00:39:30;;;;;;;5.37;1.93;;;3.60;99.90;;;;;;5011891;28;20458;-66
2023/01/16 00:41:58;;;;;;;2.67;1.53;;;3.70;99.90;;;;;;5020550;28;20475;-66
2023/01/16 00:44:24;;;;;;;5.67;2.23;;;3.70;99.90;;;;;;5019527;28;20481;-66
2023/01/16 00:46:51;;;;;;;5.23;1.43;;;3.80;99.90;;;;;;5012224;28;20496;-66
2023/01/16 00:49:18;;;;;;;2.40;1.70;;;3.80;99.90;;;;;;5012006;28;20501;-66
2023/01/16 00:51:44;;;;;;;1.80;1.70;;;3.80;99.90;;;;;;5016259;28;20475;-66
2023/01/16 00:54:11;;;;;;;2.70;1.90;;;3.90;99.90;;;;;;5012189;28;20455;-65
2023/01/16 00:56:37;;;;;;;3.20;1.70;;;3.90;99.90;;;;;;5010920;28;21025;-66
2023/01/16 00:59:05;;;;;;;2.33;2.07;;;4.00;99.90;;;;;;5016645;28;20455;-66
2023/01/16 01:01:32;;;;;;;1.70;1.60;;;4.00;99.90;;;;;;5019722;28;20474;-66
2023/01/16 01:03:59;;;;;;;4.83;1.77;;;4.00;99.90;;;;;;5012221;28;20451;-66
2023/01/16 01:06:26;;;;;;;3.20;2.00;;;4.10;99.90;;;;;;5012845;28;20457;-66
2023/01/16 01:08:53;;;;;;;3.20;1.50;;;4.10;99.90;;;;;;5022450;28;20455;-66
2023/01/16 01:11:19;;;;;;;4.93;1.90;;;4.10;99.90;;;;;;5011596;28;20479;-66
2023/01/16 01:13:46;;;;;;;5.53;1.60;;;4.10;99.90;;;;;;5011975;28;20488;-66
2023/01/16 01:16:14;;;;;;;1.93;1.83;;;4.10;99.90;;;;;;5012204;28;20490;-66
2023/01/16 01:18:41;;;;;;;3.37;1.97;;;4.20;99.90;;;;;;5011416;28;20466;-66
2023/01/16 01:21:08;;;;;;;4.00;1.90;;;4.20;99.90;;;;;;5011709;28;20529;-66
2023/01/16 01:23:35;;;;;;;2.03;1.57;;;4.20;99.90;;;;;;5011832;28;20495;-66
2023/01/16 01:26:06;;;;;;;3.97;1.70;;;4.20;99.90;;;;;;5015677;28;20497;-66
2023/01/16 01:28:33;;;;;;;7.00;1.90;;;4.20;99.90;;;;;;5012500;28;20455;-66
2023/01/16 01:31:02;;;;;;;6.70;1.80;;;4.20;99.90;;;;;;5017241;28;20813;-66
2023/01/16 01:33:30;;;;;;;2.67;1.67;;;4.20;99.90;;;;;;5016728;28;20862;-66
2023/01/16 01:35:57;;;;;;;4.83;1.90;;;4.20;99.90;;;;;;5011516;28;20451;-67
2023/01/16 01:38:24;;;;;;;4.10;1.83;;;4.20;99.90;;;;;;5011145;28;20500;-66
2023/01/16 01:40:50;;;;;;;6.13;1.87;;;4.20;99.90;;;;;;5012446;28;20581;-66
2023/01/16 01:43:17;;;;;;;3.83;2.23;;;4.20;99.90;;;;;;5017490;28;20504;-66
2023/01/16 01:45:48;;;;;;;2.33;1.80;;;4.30;99.90;;;;;;5011246;28;20517;-66
2023/01/16 01:48:24;;;;;;;4.10;1.60;;;4.20;99.90;;;;;;5011542;28;20490;-66
2023/01/16 01:50:57;;;;;;;6.10;1.80;;;4.20;99.90;;;;;;5011158;28;20930;-66
2023/01/16 01:53:27;;;;;;;5.90;1.97;;;4.20;99.90;;;;;;5011472;28;20862;-66
2023/01/16 01:55:56;;;;;;;3.83;1.73;;;4.20;99.90;;;;;;5011039;28;20509;-66
2023/01/16 01:58:26;;;;;;;3.77;2.10;;;4.20;99.90;;;;;;5018764;28;20447;-66
2023/01/16 02:00:54;;;;;;;6.60;2.20;;;4.20;99.90;;;;;;5011627;28;20462;-66
2023/01/16 02:03:25;;;;;;;3.50;1.67;;;4.30;99.90;;;;;;5011271;28;20508;-66
2023/01/16 02:05:57;;;;;;;4.50;2.47;;;4.20;99.90;;;;;;5011332;28;20455;-66
2023/01/16 02:08:28;;;;;;;5.17;2.60;;;4.20;99.90;;;;;;5013136;28;20931;-66
2023/01/16 02:11:00;;;;;;;4.23;2.47;;;4.20;99.90;;;;;;5015257;28;20521;-66
2023/01/16 02:13:27;;;;;;;7.23;3.30;;;4.10;99.90;;;;;;5016357;28;20458;-66
2023/01/16 02:22:01;;;;;;;3.43;3.13;;;3.90;99.90;;;;;;5014678;28;20489;-66
2023/01/16 02:24:47;;;;;;;8.63;3.60;;;3.80;99.90;;;;;;5013398;28;20926;-67
2023/01/16 02:27:35;;;;;;;5.60;2.40;;;3.80;99.90;;;;;;5014965;28;20505;-66
2023/01/16 02:30:55;;;;;;;3.80;2.30;;;3.80;99.90;;;;;;5027164;28;20941;-66
2023/01/16 02:33:29;;;;;;;7.77;2.70;;;3.70;99.90;;;;;;4978755;28;20519;-66
2023/01/16 02:36:04;;;;;;;2.43;2.17;;;3.60;99.90;;;;;;4973236;28;20519;-66
2023/01/16 02:38:42;;;;;;;5.03;1.93;;;3.60;99.90;;;;;;5000852;28;20505;-66
2023/01/16 02:41:17;;;;;;;2.43;2.20;;;3.60;99.90;;;;;;5014444;28;20477;-66
2023/01/16 02:43:52;;;;;;;7.37;2.93;;;3.60;99.90;;;;;;5020616;28;20462;-66
2023/01/16 02:46:26;;;;;;;6.87;2.37;;;3.50;99.90;;;;;;5014478;28;20454;-66
2023/01/16 02:49:00;;;;;;;11.00;2.60;;;3.60;99.90;;;;;;5014559;28;20496;-66
2023/01/16 02:51:34;;;;;;;2.43;1.80;;;3.60;99.90;;;;;;5014109;28;20478;-68
2023/01/16 02:54:10;;;;;;;5.40;2.40;;;3.60;99.90;;;;;;5014507;28;20450;-66
2023/01/16 02:56:42;;;;;;;6.10;2.80;;;3.60;99.90;;;;;;5014031;28;20500;-66
2023/01/16 02:59:10;;;;;;;3.60;2.30;;;3.60;99.90;;;;;;5022291;28;20465;-66
2023/01/16 03:01:40;;;;;;;5.30;2.40;;;3.70;99.90;;;;;;5022339;28;20962;-67
2023/01/16 03:04:54;;;;;;;8.33;3.00;;;3.70;99.90;;;;;;5013873;28;20454;-67
2023/01/16 03:07:45;;;;;;;3.90;2.20;;;3.70;99.90;;;;;;4983146;28;20886;-65
2023/01/16 03:10:24;;;;;;;10.23;2.63;;;3.70;99.90;;;;;;5012934;28;20454;-66
2023/01/16 03:13:01;;;;;;;6.50;2.63;;;3.70;99.90;;;;;;5015432;28;20521;-67
2023/01/16 03:15:35;;;;;;;9.23;2.40;;;3.70;99.90;;;;;;5013916;28;20459;-66
2023/01/16 03:18:11;;;;;;;5.60;2.60;;;3.70;99.90;;;;;;5013840;28;20902;-67
2023/01/16 03:20:48;;;;;;;4.63;2.50;;;3.60;99.90;;;;;;5012500;28;20867;-66
2023/01/16 03:23:24;;;;;;;5.43;3.07;;;3.60;99.90;;;;;;5018079;28;20458;-67
2023/01/16 03:25:55;;;;;;;4.83;2.80;;;3.60;99.90;;;;;;5018625;28;20450;-68
2023/01/16 03:28:33;;;;;;;5.63;2.70;;;3.60;99.90;;;;;;5013399;28;20997;-67
2023/01/16 03:31:07;;;;;;;5.20;3.43;;;3.60;99.90;;;;;;5025347;28;20571;-67
2023/01/16 03:33:43;;;;;;;10.63;2.60;;;3.60;99.90;;;;;;5018160;28;20447;-67
2023/01/16 03:36:15;;;;;;;7.90;2.33;;;3.50;99.90;;;;;;5013733;28;20510;-67
2023/01/16 03:38:46;;;;;;;3.07;2.30;;;3.50;99.90;;;;;;5013397;28;20548;-67
2023/01/16 03:41:17;;;;;;;6.33;2.40;;;3.60;99.90;;;;;;5021431;28;21029;-67
2023/01/16 03:43:49;;;;;;;7.80;2.47;;;3.60;99.90;;;;;;5020087;28;20521;-67
2023/01/16 03:46:19;;;;;;;4.53;2.10;;;3.60;99.90;;;;;;5013339;28;20473;-67
2023/01/16 03:48:52;;;;;;;6.43;2.30;;;3.60;99.90;;;;;;5013313;28;20451;-67
2023/01/16 03:51:23;;;;;;;12.03;3.40;;;3.70;99.90;;;;;;5021483;28;20475;-67
2023/01/16 03:54:02;;;;;;;4.23;2.20;;;3.70;99.90;;;;;;5019533;28;20513;-67
2023/01/16 03:56:34;;;;;;;7.10;1.90;;;3.70;99.90;;;;;;5015217;28;20450;-66
2023/01/16 03:59:02;;;;;;;3.53;1.83;;;3.70;99.90;;;;;;5013201;28;20485;-67
2023/01/16 04:01:37;;;;;;;3.43;1.77;;;3.70;99.90;;;;;;5013071;28;20467;-67
2023/01/16 04:04:08;;;;;;;8.67;2.47;;;3.80;99.90;;;;;;5025990;28;20528;-67
2023/01/16 04:06:42;;;;;;;3.43;1.97;;;3.80;99.90;;;;;;5014491;28;20518;-67
2023/01/16 04:09:15;;;;;;;3.87;2.20;;;3.80;99.90;;;;;;5012988;28;20446;-67
2023/01/16 04:11:43;;;;;;;6.53;2.40;;;3.80;99.90;;;;;;5020627;28;20474;-66
2023/01/16 04:14:12;;;;;;;4.57;2.07;;;3.70;99.90;;;;;;5012825;28;20498;-67
2023/01/16 04:16:40;;;;;;;7.40;2.47;;;3.70;99.90;;;;;;5012294;28;20450;-67
2023/01/16 04:19:11;;;;;;;3.50;2.40;;;3.70;99.90;;;;;;5012599;28;21017;-67
2023/01/16 04:21:38;;;;;;;4.60;2.50;;;3.70;99.90;;;;;;5012515;28;20983;-67
2023/01/16 04:24:05;;;;;;;4.90;2.60;;;3.70;99.90;;;;;;5016951;28;20454;-67
2023/01/16 04:26:32;;;;;;;5.63;2.70;;;3.60;99.90;;;;;;5014728;28;20927;-67
2023/01/16 04:28:58;;;;;;;5.30;2.43;;;3.60;99.90;;;;;;5023572;28;20450;-67
2023/01/16 04:31:27;;;;;;;3.83;2.00;;;3.60;99.90;;;;;;5015372;28;20601;-67
2023/01/16 04:33:53;;;;;;;5.47;2.30;;;3.60;99.90;;;;;;5017492;28;20525;-67
2023/01/16 04:36:22;;;;;;;6.87;2.00;;;3.60;99.90;;;;;;5012384;28;20503;-67
2023/01/16 04:38:48;;;;;;;3.73;1.80;;;3.60;99.90;;;;;;5012254;28;20491;-67
2023/01/16 04:41:35;;;;;;;9.77;3.10;;;3.60;99.90;;;;;;5012484;28;20470;-67
2023/01/16 04:44:02;;;;;;;5.37;2.47;;;3.70;99.90;;;;;;5028523;28;20946;-66
2023/01/16 04:46:28;;;;;;;26.03;2.50;;;3.70;99.90;;;;;;5015180;28;20451;-67
2023/01/16 04:48:55;;;;;;;7.80;2.60;;;3.70;99.90;;;;;;5012288;28;20505;-67
2023/01/16 04:51:23;;;;;;;4.07;2.10;;;3.70;99.90;;;;;;5012445;28;20478;-67
2023/01/16 04:53:50;;;;;;;10.30;2.27;;;3.70;99.90;;;;;;5011275;28;20459;-67
2023/01/16 04:56:17;;;;;;;2.90;1.93;;;3.70;99.90;;;;;;5012146;28;20505;-67
2023/01/16 04:58:44;;;;;;;4.70;2.07;;;3.70;99.90;;;;;;5011842;28;20541;-68
2023/01/16 05:01:10;;;;;;;4.47;2.43;;;3.70;99.90;;;;;;5020164;28;20466;-68
2023/01/16 05:03:37;;;;;;;3.57;2.20;;;3.70;99.90;;;;;;5018430;28;20886;-66
2023/01/16 05:06:04;;;;;;;3.50;1.97;;;3.70;99.90;;;;;;5016958;28;20461;-66
2023/01/16 05:08:32;;;;;;;3.33;2.20;;;3.70;99.90;;;;;;5014517;28;21017;-67
2023/01/16 05:11:00;;;;;;;5.53;2.20;;;3.70;99.90;;;;;;5015683;28;20478;-67
2023/01/16 05:13:27;;;;;;;3.43;2.47;;;3.70;99.90;;;;;;5015020;28;20553;-67
2023/01/16 05:15:54;;;;;;;2.50;1.87;;;3.70;99.90;;;;;;5011684;28;20446;-68
2023/01/16 05:18:21;;;;;;;3.10;2.00;;;3.70;99.90;;;;;;5011529;28;20530;-67
2023/01/16 05:20:48;;;;;;;4.43;2.50;;;3.70;99.90;;;;;;5021900;28;20501;-67
2023/01/16 05:23:15;;;;;;;4.53;1.70;;;3.70;99.90;;;;;;5020297;28;20477;-67
2023/01/16 05:25:43;;;;;;;6.00;2.40;;;3.70;99.90;;;;;;5026349;28;20454;-67
2023/01/16 05:28:11;;;;;;;10.83;2.20;;;3.70;99.90;;;;;;5022757;28;20858;-67
2023/01/16 05:30:38;;;;;;;2.60;1.73;;;3.70;99.90;;;;;;5021170;28;20545;-67
2023/01/16 05:33:06;;;;;;;5.57;2.47;;;3.70;99.90;;;;;;5022058;28;20454;-67
2023/01/16 05:35:33;;;;;;;2.50;1.93;;;3.70;99.90;;;;;;5019295;28;20977;-67
2023/01/16 05:37:59;;;;;;;4.97;2.93;;;3.70;99.90;;;;;;5018990;28;20540;-67
2023/01/16 05:40:26;;;;;;;2.20;1.70;;;3.70;99.90;;;;;;5011414;28;20541;-67
2023/01/16 05:42:54;;;;;;;7.13;2.67;;;3.70;99.90;;;;;;5019772;28;20464;-67
2023/01/16 05:45:20;;;;;;;5.10;2.27;;;3.70;99.90;;;;;;5023342;28;20455;-67
2023/01/16 05:47:47;;;;;;;5.77;3.17;;;3.70;99.90;;;;;;5017571;28;21012;-67
2023/01/16 05:50:14;;;;;;;5.50;2.40;;;3.70;99.90;;;;;;5017807;28;20446;-67
2023/01/16 05:52:40;;;;;;;8.53;2.20;;;3.70;99.90;;;;;;5018007;28;20449;-67
2023/01/16 05:55:08;;;;;;;2.90;2.23;;;3.70;99.90;;;;;;5018467;28;20811;-67
2023/01/16 05:57:34;;;;;;;3.47;1.77;;;3.70;99.90;;;;;;5017419;28;20997;-66
2023/01/16 06:00:03;;;;;;;5.80;2.00;;;3.70;99.90;;;;;;5017493;28;20450;-67
2023/01/16 06:02:30;;;;;;;11.10;2.23;;;3.70;99.90;;;;;;5017855;28;20803;-67
2023/01/16 06:04:56;;;;;;;3.63;2.00;;;3.60;99.90;;;;;;5018951;28;20450;-67
2023/01/16 06:07:23;;;;;;;6.53;2.00;;;3.60;99.90;;;;;;5017753;28;20505;-67
2023/01/16 06:09:50;;;;;;;7.23;2.10;;;3.60;99.90;;;;;;5017106;28;20455;-67
2023/01/16 06:12:18;;;;;;;7.33;2.20;;;3.60;99.90;;;;;;5017489;28;20517;-67
2023/01/16 06:14:45;;;;;;;4.07;2.10;;;3.60;99.90;;;;;;5017188;28;20482;-66
2023/01/16 06:17:15;;;;;;;8.40;2.23;;;3.60;99.90;;;;;;5017662;28;20573;-68
2023/01/16 06:19:42;;;;;;;5.33;1.87;;;3.70;99.90;;;;;;5017191;28;20525;-68
2023/01/16 06:22:08;;;;;;;3.60;1.70;;;3.70;99.90;;;;;;5019719;28;20477;-67
2023/01/16 06:24:35;;;;;;;5.67;1.90;;;3.70;99.90;;;;;;5020918;28;20458;-68
2023/01/16 06:27:02;;;;;;;6.50;2.00;;;3.70;99.90;;;;;;5017145;28;20446;-67
2023/01/16 06:29:29;;;;;;;3.07;1.77;;;3.70;99.90;;;;;;5018271;28;20442;-68
2023/01/16 06:31:56;;;;;;;8.00;2.20;;;3.60;99.90;;;;;;5024025;28;20473;-68
2023/01/16 06:34:24;;;;;;;6.83;1.70;;;3.60;99.90;;;;;;5017568;28;20874;-68
2023/01/16 06:36:51;;;;;;;4.80;1.93;;;3.60;99.90;;;;;;5025244;28;20450;-67
2023/01/16 06:39:17;;;;;;;3.87;1.70;;;3.60;99.90;;;;;;5017340;28;20482;-67
2023/01/16 06:41:44;;;;;;;2.13;1.50;;;3.60;99.90;;;;;;5016617;28;20474;-67
2023/01/16 06:44:11;;;;;;;3.77;1.90;;;3.60;99.90;;;;;;5017940;28;20504;-67
2023/01/16 06:46:37;;;;;;;5.47;2.20;;;3.60;99.90;;;;;;5017856;28;20936;-67
2023/01/16 06:49:04;;;;;;;3.87;1.80;;;3.60;99.90;;;;;;5024448;28;20452;-67
2023/01/16 06:51:32;;;;;;;2.87;1.77;;;3.60;99.90;;;;;;5023278;28;20481;-67
2023/01/16 06:54:02;;;;;;;3.60;1.90;;;3.70;99.90;;;;;;5015036;28;20505;-68
2023/01/16 06:56:29;;;;;;;3.40;2.00;;;3.70;99.90;;;;;;5014176;28;20786;-68
2023/01/16 06:58:56;;;;;;;3.00;2.00;;;3.70;99.90;;;;;;5014116;28;20483;-68
2023/01/16 07:01:22;;;;;;;6.57;2.10;;;3.70;99.90;;;;;;5014104;28;20531;-68
2023/01/16 07:03:49;;;;;;;4.67;1.90;;;3.60;99.90;;;;;;5013963;28;20935;-68
2023/01/16 07:06:16;;;;;;;5.87;2.47;;;3.60;99.90;;;;;;5013602;28;20447;-67
2023/01/16 07:08:44;;;;;;;5.63;1.80;;;3.70;99.90;;;;;;5014294;28;20508;-68
2023/01/16 07:11:11;;;;;;;6.13;1.80;;;3.70;99.90;;;;;;5014058;28;20474;-68
2023/01/16 07:13:37;;;;;;;2.87;2.33;;;3.70;99.90;;;;;;5019219;28;20512;-68
2023/01/16 07:24:22;;;;;;;3.10;1.50;;;3.80;99.90;;;;;;5027435;28;20519;-68
2023/01/16 07:26:52;;;;;;;3.30;1.80;;;3.80;99.90;;;;;;5027790;28;20458;-68
2023/01/16 07:29:19;;;;;;;3.23;1.73;;;3.80;99.90;;;;;;5027572;28;20465;-68
2023/01/16 07:31:46;;;;;;;4.30;1.50;;;3.90;99.90;;;;;;5027504;28;20528;-68
2023/01/16 07:34:12;;;;;;;3.30;1.70;;;3.90;99.90;;;;;;5028811;28;21814;-68
2023/01/16 07:36:39;;;;;;;8.20;2.07;;;3.90;99.90;;;;;;5027469;28;20454;-68
2023/01/16 07:39:06;;;;;;;2.90;1.87;;;3.90;99.90;;;;;;5028913;28;20489;-68
2023/01/16 07:41:34;;;;;;;3.57;2.00;;;3.90;99.90;;;;;;5028412;28;21133;-67
2023/01/16 07:44:00;;;;;;;3.20;1.90;;;3.80;99.90;;;;;;5027698;28;20454;-68
2023/01/16 07:46:27;;;;;;;3.20;1.80;;;3.80;99.90;;;;;;5027496;28;20536;-68
2023/01/16 07:48:55;;;;;;;5.37;1.90;;;3.80;99.90;;;;;;5028501;28;20446;-68
2023/01/16 07:51:21;;;;;;;4.37;2.07;;;3.80;99.90;;;;;;5027436;28;20482;-68
2023/01/16 07:53:48;;;;;;;11.63;2.30;;;3.70;99.90;;;;;;5027476;28;20872;-68
2023/01/16 07:56:15;;;;;;;7.07;2.00;;;3.70;99.90;;;;;;5027575;28;20457;-68
2023/01/16 07:58:43;;;;;;;5.70;2.00;;;3.70;99.90;;;;;;5027452;28;20485;-68
2023/01/16 08:01:10;;;;;;;2.30;1.80;;;3.70;99.90;;;;;;5027381;28;20883;-69
2023/01/16 08:03:37;;;;;;;4.57;1.53;;;3.60;99.90;;;;;;5027935;28;20450;-67
2023/01/16 08:06:05;;;;;;;6.33;2.00;;;3.60;99.90;;;;;;5027409;28;20481;-67
2023/01/16 08:08:32;;;;;;;3.73;2.00;;;3.60;99.90;;;;;;5026785;28;21004;-67
2023/01/16 08:11:34;;;;;;;6.70;2.00;;;3.60;99.90;;;;;;5026798;28;20509;-68
2023/01/16 08:13:48;;;;;;;8.03;2.20;;;3.60;99.90;;;;;;5026992;28;20904;-66
2023/01/16 08:16:15;;;;;;;2.33;2.00;;;3.60;99.90;;;;;;5028194;28;21279;-67
2023/01/16 08:18:42;;;;;;;4.10;1.77;;;3.60;99.90;;;;;;5027126;28;20490;-67
2023/01/16 08:21:08;;;;;;;3.63;2.27;;;3.60;99.90;;;;;;5028256;28;20897;-69
2023/01/16 08:23:35;;;;;;;8.13;2.33;;;3.60;99.90;;;;;;5026722;28;20466;-70
2023/01/16 08:26:01;;;;;;;4.83;1.70;;;3.60;99.90;;;;;;5026890;28;20454;-69
2023/01/16 08:28:28;;;;;;;2.70;1.50;;;3.60;99.90;;;;;;5027646;28;20472;-67
2023/01/16 08:30:56;;;;;;;4.60;1.80;;;3.60;99.90;;;;;;5026186;28;20531;-67
2023/01/16 08:33:23;;;;;;;3.00;2.10;;;3.60;99.90;;;;;;5027885;28;20454;-67
2023/01/16 08:35:49;;;;;;;5.07;1.83;;;3.60;99.90;;;;;;5025633;28;21027;-67
2023/01/16 08:38:16;;;;;;;3.90;2.30;;;3.60;99.90;;;;;;5026977;28;20520;-67
2023/01/16 08:40:42;;;;;;;5.50;1.88;;;3.60;99.90;;;;;;5026255;28;20468;-66
2023/01/16 08:51:25;;;;;;;3.47;1.83;;;3.80;99.90;;;;;;5026072;28;20461;-65
2023/01/16 08:53:53;;;;;;;3.37;2.30;;;3.80;99.90;;;;;;5027511;28;20457;-65
2023/01/16 08:56:20;;;;;;;5.43;1.97;;;3.80;99.90;;;;;;5026982;28;20575;-65
2023/01/16 08:58:47;;;;;;;6.63;1.90;;;3.90;99.90;;;;;;5025908;28;20482;-67
2023/01/16 09:01:16;;;;;;;2.67;1.67;;;3.90;99.90;;;;;;5025651;28;21001;-67
2023/01/16 09:03:43;;;;;;;7.03;1.60;;;4.00;99.90;;;;;;5026294;28;21011;-67
2023/01/16 09:06:10;;;;;;;3.10;1.70;;;4.00;99.90;;;;;;5026013;28;20835;-67
2023/01/16 09:08:36;;;;;;;6.33;3.40;;;4.00;99.90;;;;;;5027092;28;20483;-67
2023/01/16 09:13:50;;;;;;;3.50;1.90;;;4.00;99.90;;;;;;5026814;28;20441;-67
2023/01/16 09:16:19;;;;;;;4.43;1.97;;;4.00;99.90;;;;;;5026338;28;20972;-66
2023/01/16 09:18:45;;;;;;;5.20;1.90;;;4.00;99.90;;;;;;5024632;28;20489;-67
2023/01/16 09:21:12;;;;;;;6.00;1.90;;;4.00;99.90;;;;;;5027167;28;20478;-67
2023/01/16 09:23:39;;;;;;;3.20;2.40;;;4.00;99.90;;;;;;5025716;28;20458;-66
2023/01/16 09:26:06;;;;;;;2.47;1.60;;;4.00;99.90;;;;;;5025502;28;20454;-67
2023/01/16 09:28:33;;;;;;;4.90;1.77;;;4.00;99.90;;;;;;5026277;28;20477;-67
2023/01/16 09:30:59;;;;;;;2.40;1.90;;;3.90;99.90;;;;;;5025690;28;20478;-66
2023/01/16 09:33:27;;;;;;;7.20;2.00;;;3.90;99.90;;;;;;5026412;28;20488;-66
2023/01/16 09:35:54;;;;;;;1.70;1.53;;;3.90;99.90;;;;;;5025917;28;20488;-66
2023/01/16 09:38:21;;;;;;;4.87;1.77;;;3.90;99.90;;;;;;5026544;28;20466;-65
2023/01/16 09:40:51;;;;;;;3.50;1.77;;;3.90;99.90;;;;;;5025661;28;20482;-64
2023/01/16 09:43:35;;;;;;;12.37;2.17;;;3.90;99.90;;;;;;5026637;28;20524;-66
2023/01/16 09:46:06;;;;;;;6.57;1.97;;;3.80;99.90;;;;;;5025155;28;20449;-66
2023/01/16 09:48:37;;;;;;;5.20;2.77;;;3.70;99.90;;;;;;5026583;28;20457;-66
2023/01/16 09:51:08;;;;;;;3.27;1.70;;;3.60;99.90;;;;;;5026771;28;20481;-66
2023/01/16 09:59:33;;;;;;;8.90;2.07;;;3.30;99.90;;;;;;4974361;28;20532;-67
2023/01/16 10:02:08;;;;;;;2.47;1.70;;;3.30;99.90;;;;;;5017179;28;21700;-67
2023/01/16 10:04:36;;;;;;;2.53;1.80;;;3.20;99.90;;;;;;5026423;28;20522;-67
2023/01/16 10:07:37;;;;;;;2.43;1.57;;;3.10;99.90;;;;;;5025172;28;20454;-67
2023/01/16 10:10:12;;;;;;;1.70;1.60;;;3.10;99.90;;;;;;5025963;28;20450;-67
2023/01/16 10:12:39;;;;;;;12.90;2.20;;;3.10;99.90;;;;;;5025405;28;20462;-67
2023/01/16 10:15:18;;;;;;;3.10;1.60;;;3.10;99.90;;;;;;5025100;28;20450;-67
2023/01/16 10:17:56;;;;;;;3.83;2.20;;;3.10;99.90;;;;;;5026069;28;20452;-67
2023/01/16 10:20:43;;;;;;;3.37;1.60;;;3.10;99.90;;;;;;5025901;28;20494;-67
2023/01/16 10:23:23;;;;;;;4.60;1.67;;;3.10;99.90;;;;;;5026280;28;20445;-67
2023/01/16 10:25:59;;;;;;;2.23;1.93;;;3.00;99.90;;;;;;5024764;28;20556;-66
2023/01/16 10:28:34;;;;;;;5.30;2.17;;;3.00;99.90;;;;;;5026407;28;20453;-67
2023/01/16 10:31:07;;;;;;;4.17;1.90;;;3.00;99.90;;;;;;5029047;28;21070;-66
2023/01/16 10:33:39;;;;;;;2.50;1.77;;;3.00;99.90;;;;;;5029781;28;20515;-66
2023/01/16 10:36:11;;;;;;;1.77;1.57;;;3.00;99.90;;;;;;5029488;28;20843;-66
2023/01/16 10:38:43;;;;;;;1.60;1.50;;;2.90;99.90;;;;;;5029832;28;20507;-66
2023/01/16 10:49:26;;;;;;;1.90;1.80;;;2.90;99.90;;;;;;5029117;28;20999;-66
2023/01/16 10:51:55;;;;;;;3.20;1.70;;;2.90;99.90;;;;;;5029572;28;21306;-66
2023/01/16 10:54:22;;;;;;;4.90;1.70;;;2.80;99.90;;;;;;5029229;28;20551;-66
2023/01/16 10:56:49;;;;;;;6.87;2.20;;;2.80;99.90;;;;;;5028022;28;20454;-66
2023/01/16 10:59:16;;;;;;;6.13;2.00;;;2.80;99.90;;;;;;5029925;28;20569;-66
2023/01/16 11:01:43;;;;;;;3.73;1.90;;;2.80;99.90;;;;;;5028676;28;20895;-65
2023/01/16 11:04:11;;;;;;;6.63;1.73;;;2.70;99.90;;;;;;5027931;28;20503;-66
2023/01/16 11:06:41;;;;;;;2.67;1.73;;;2.70;99.90;;;;;;5026791;28;20524;-66
2023/01/16 11:09:19;;;;;;;2.47;1.90;;;2.60;99.90;;;;;;5025210;28;20460;-66
2023/01/16 11:20:15;;;;;;;4.17;1.70;;;2.50;99.90;;;;;;5028649;28;20577;-66
2023/01/16 11:22:42;;;;;;;2.17;1.97;;;2.40;99.90;;;;;;5028690;28;20458;-66
2023/01/16 11:25:17;;;;;;;5.70;1.80;;;2.40;99.90;;;;;;5027720;28;20484;-65
2023/01/16 11:27:46;;;;;;;2.77;2.30;;;2.40;99.90;;;;;;5027484;28;20461;-64
2023/01/16 11:30:18;;;;;;;4.30;2.53;;;2.40;99.90;;;;;;5028445;28;20457;-66
2023/01/16 11:32:48;;;;;;;3.13;1.73;;;2.40;99.90;;;;;;5028713;28;20450;-66
2023/01/16 11:35:16;;;;;;;2.00;1.90;;;2.40;99.90;;;;;;5028236;28;20956;-67
2023/01/16 11:37:45;;;;;;;4.20;1.87;;;2.40;99.90;;;;;;5028695;28;20523;-67
2023/01/16 11:40:17;;;;;;;2.40;2.20;;;2.40;99.90;;;;;;5027250;28;21124;-67
2023/01/16 11:48:27;;;;;;;2.20;2.00;;;2.50;99.90;;;;;;5027815;28;21014;-67
2023/01/16 11:50:56;;;;;;;2.53;2.30;;;2.60;99.90;;;;;;5028754;28;20484;-68
2023/01/16 11:53:23;;;;;;;4.60;2.70;;;2.60;99.90;;;;;;5027288;28;20453;-67
2023/01/16 11:56:02;;;;;;;3.77;2.17;;;2.60;99.90;;;;;;5027711;28;20445;-67
2023/01/16 11:58:38;;;;;;;2.50;2.30;;;2.60;99.90;;;;;;5028282;28;20470;-67
2023/01/16 12:01:12;;;;;;;5.10;2.70;;;2.70;99.90;;;;;;5027041;28;20501;-66
2023/01/16 12:04:04;;;;;;;3.50;2.43;;;2.70;99.90;;;;;;5027616;28;21007;-68
2023/01/16 12:06:48;;;;;;;5.43;2.47;;;2.70;99.90;;;;;;5027172;28;20611;-67
2023/01/16 12:09:32;;;;;;;3.57;2.43;;;2.70;99.90;;;;;;5027752;28;20453;-67
2023/01/16 12:15:06;;;;;;;3.23;2.80;;;2.70;99.90;;;;;;5027241;28;20457;-66
2023/01/16 12:17:46;;;;;;;2.60;2.40;;;2.70;99.90;;;;;;5027689;28;21058;-67
2023/01/16 12:20:20;;;;;;;3.20;2.27;;;2.80;99.90;;;;;;5027661;28;20588;-66
2023/01/16 12:23:06;;;;;;;2.33;2.13;;;2.70;99.90;;;;;;5028769;28;20523;-67
2023/01/16 12:25:44;;;;;;;2.80;2.60;;;2.70;99.90;;;;;;5026583;28;20452;-66
2023/01/16 12:28:22;;;;;;;2.10;2.00;;;2.80;99.90;;;;;;5027476;28;20454;-67
2023/01/16 12:31:16;;;;;;;2.30;1.93;;;2.70;99.90;;;;;;5025992;28;20515;-67
2023/01/16 12:33:49;;;;;;;5.93;2.37;;;2.70;99.90;;;;;;5027840;28;20465;-64
2023/01/16 12:36:22;;;;;;;3.10;2.53;;;2.70;99.90;;;;;;5027264;28;20541;-67
2023/01/16 12:39:00;;;;;;;7.20;2.60;;;2.70;99.90;;;;;;5027062;28;20626;-65
2023/01/16 12:44:30;;;;;;;3.43;2.67;;;2.70;99.90;;;;;;5026956;28;20795;-68
2023/01/16 12:47:18;;;;;;;2.50;2.30;;;2.80;99.90;;;;;;5027435;28;20512;-66
2023/01/16 12:49:58;;;;;;;12.73;2.90;;;2.80;99.90;;;;;;5027402;28;20537;-66
2023/01/16 12:52:40;;;;;;;5.93;2.37;;;2.80;99.90;;;;;;5026164;28;20449;-66
2023/01/16 12:55:22;;;;;;;4.73;2.70;;;2.80;99.90;;;;;;5026800;28;20519;-66
2023/01/16 12:58:03;;;;;;;2.03;1.80;;;2.90;99.90;;;;;;5026768;28;20519;-65
2023/01/16 13:00:39;;;;;;;2.07;1.90;;;2.90;99.90;;;;;;5026699;28;20497;-66
2023/01/16 13:03:18;;;;;;;5.73;3.50;;;3.00;99.90;;;;;;5026246;28;20884;-66
2023/01/16 13:05:46;;;;;;;2.37;2.00;;;3.00;99.90;;;;;;5026836;28;20959;-66
2023/01/16 13:08:19;;;;;;;4.37;2.30;;;3.00;99.90;;;;;;5026765;28;20454;-66
2023/01/16 13:13:37;;;;;;;3.97;1.90;;;3.10;99.90;;;;;;5027553;28;20449;-66
2023/01/16 13:16:12;;;;;;;3.17;2.07;;;3.20;99.90;;;;;;5025286;28;20457;-66
2023/01/16 13:18:43;;;;;;;3.47;1.80;;;3.20;99.90;;;;;;5026705;28;20457;-67
2023/01/16 13:21:15;;;;;;;2.27;2.07;;;3.30;99.90;;;;;;5025549;28;20573;-67
2023/01/16 13:23:48;;;;;;;2.80;2.00;;;3.30;99.90;;;;;;5026480;28;20454;-65
2023/01/16 13:26:17;;;;;;;2.43;2.20;;;3.30;99.90;;;;;;5026551;28;20516;-65
2023/01/16 13:28:50;;;;;;;3.60;2.20;;;3.40;99.90;;;;;;5026468;28;20469;-66
2023/01/16 13:31:28;;;;;;;2.87;2.47;;;3.40;99.90;;;;;;5025841;28;20473;-66
2023/01/16 13:34:00;;;;;;;2.80;2.17;;;3.50;99.90;;;;;;5026082;28;20454;-66
2023/01/16 13:36:47;;;;;;;6.90;2.10;;;3.60;99.90;;;;;;5026075;28;20442;-66
2023/01/16 13:40:02;;;;;;;3.03;2.37;;;3.60;99.90;;;;;;5026887;28;20453;-67
2023/01/16 13:42:30;;;;;;;4.43;2.33;;;3.60;99.90;;;;;;4986734;28;20466;-66
2023/01/16 13:47:49;;;;;;;2.73;2.30;;;3.70;99.90;;;;;;5025899;28;20524;-66
2023/01/16 13:50:23;;;;;;;3.13;1.90;;;3.70;99.90;;;;;;5026691;28;20547;-66
2023/01/16 13:52:54;;;;;;;2.50;2.30;;;3.70;99.90;;;;;;5026119;28;20461;-65
2023/01/16 13:55:28;;;;;;;2.60;2.00;;;3.70;99.90;;;;;;5026210;28;20457;-66
2023/01/16 13:57:56;;;;;;;4.50;2.13;;;3.80;99.90;;;;;;5026543;28;20442;-66
2023/01/16 14:00:24;;;;;;;2.80;1.97;;;3.80;99.90;;;;;;5025151;28;20575;-66
2023/01/16 14:03:18;;;;;;;3.60;2.27;;;3.80;99.90;;;;;;5026701;28;21065;-66
2023/01/16 14:05:49;;;;;;;4.83;2.67;;;3.80;99.90;;;;;;5030600;28;20445;-66
2023/01/16 14:11:17;;;;;;;2.13;1.93;;;3.90;99.90;;;;;;5029456;28;20465;-66
2023/01/16 14:13:44;;;;;;;1.93;1.70;;;3.90;99.90;;;;;;5029938;28;20532;-66
2023/01/16 14:16:30;;;;;;;1.70;1.60;;;3.90;99.90;;;;;;5029836;28;20458;-66
2023/01/16 14:19:03;;;;;;;1.53;1.43;;;3.90;99.90;;;;;;5029978;28;20465;-66
2023/01/16 14:21:41;;;;;;;1.90;1.80;;;4.00;99.90;;;;;;5029999;28;20497;-66
2023/01/16 14:24:15;;;;;;;1.87;1.77;;;4.00;99.90;;;;;;5029716;28;20454;-66